createdAt,value
2017-11-17T00:01:38.239Z,22.33
2017-11-17T00:04:06.498Z,22.90
2017-11-17T00:06:35.637Z,22.30
2017-11-17T00:09:03.895Z,21.17
2017-11-17T00:11:32.182Z,21.13
2017-11-17T00:14:00.484Z,22.57
2017-11-17T00:16:28.864Z,22.40
2017-11-17T00:18:57.144Z,21.67
2017-11-17T00:21:25.411Z,23.30
2017-11-17T00:23:53.678Z,22.80
2017-11-17T00:26:21.952Z,25.30
2017-11-17T00:28:50.230Z,23.90
2017-11-17T00:31:18.503Z,21.50
2017-11-17T00:33:46.773Z,22.60
2017-11-17T00:36:16.040Z,25.87
2017-11-17T00:38:44.423Z,24.20
2017-11-17T00:41:12.808Z,23.00
2017-11-17T00:43:41.070Z,24.47
2017-11-17T00:46:09.464Z,23.60
2017-11-17T00:48:37.734Z,23.80
2017-11-17T00:51:06.123Z,22.95
2017-11-17T00:53:34.414Z,23.70
2017-11-17T00:56:02.846Z,24.40
2017-11-17T00:58:31.205Z,23.03
2017-11-17T01:00:59.465Z,24.23
2017-11-17T01:03:27.748Z,24.10
2017-11-17T01:05:56.533Z,22.83
2017-11-17T01:08:24.813Z,23.02
2017-11-17T01:10:53.092Z,24.12
2017-11-17T01:13:21.459Z,24.52
2017-11-17T01:15:49.708Z,24.33
2017-11-17T01:18:17.984Z,23.40
2017-11-17T01:20:47.006Z,22.67
2017-11-17T01:23:15.281Z,21.00
2017-11-17T01:25:43.532Z,24.20
2017-11-17T01:28:11.796Z,20.03
2017-11-17T01:30:40.045Z,23.70
2017-11-17T01:33:08.345Z,22.17
2017-11-17T01:35:36.604Z,22.83
2017-11-17T01:38:04.923Z,25.37
2017-11-17T01:40:33.193Z,22.60
2017-11-17T01:43:01.470Z,24.40
2017-11-17T01:45:29.760Z,23.93
2017-11-17T01:47:58.037Z,23.97
2017-11-17T01:50:26.569Z,23.00
2017-11-17T01:52:55.615Z,23.17
2017-11-17T01:55:23.993Z,23.50
2017-11-17T01:57:52.253Z,26.27
2017-11-17T02:00:20.554Z,26.60
2017-11-17T02:02:48.802Z,23.63
2017-11-17T02:05:17.083Z,23.40
2017-11-17T02:07:45.397Z,22.33
2017-11-17T02:10:13.771Z,24.87
2017-11-17T02:12:42.073Z,24.53
2017-11-17T02:15:10.453Z,24.97
2017-11-17T02:17:38.712Z,24.90
2017-11-17T02:20:07.023Z,24.33
2017-11-17T02:22:35.296Z,26.20
2017-11-17T02:25:04.380Z,23.70
2017-11-17T02:27:32.636Z,24.70
2017-11-17T02:30:00.919Z,24.20
2017-11-17T02:32:29.184Z,22.90
2017-11-17T02:34:57.448Z,25.17
2017-11-17T02:37:25.796Z,24.13
2017-11-17T02:39:54.064Z,25.53
2017-11-17T02:42:22.326Z,25.63
2017-11-17T02:44:50.600Z,23.83
2017-11-17T02:47:18.918Z,23.98
2017-11-17T02:49:47.686Z,24.20
2017-11-17T02:52:15.929Z,25.73
2017-11-17T02:54:44.983Z,24.40
2017-11-17T02:57:13.300Z,23.17
2017-11-17T02:59:41.647Z,26.13
2017-11-17T03:02:10.869Z,24.47
2017-11-17T03:04:39.135Z,22.93
2017-11-17T03:07:07.400Z,24.90
2017-11-17T03:09:35.661Z,25.27
2017-11-17T03:12:03.931Z,24.13
2017-11-17T03:14:33.531Z,24.90
2017-11-17T03:17:01.807Z,26.17
2017-11-17T03:19:31.560Z,25.30
2017-11-17T03:21:59.837Z,24.50
2017-11-17T03:24:28.101Z,25.10
2017-11-17T03:26:57.138Z,24.60
2017-11-17T03:29:25.441Z,24.70
2017-11-17T03:31:53.716Z,20.93
2017-11-17T03:34:21.990Z,25.20
2017-11-17T03:36:50.259Z,23.87
2017-11-17T03:39:18.516Z,24.90
2017-11-17T03:41:46.787Z,23.00
2017-11-17T03:44:15.817Z,23.70
2017-11-17T03:46:44.096Z,23.03
2017-11-17T03:49:12.349Z,23.30
2017-11-17T03:51:41.405Z,24.63
2017-11-17T03:54:09.653Z,24.20
2017-11-17T03:56:37.924Z,23.50
2017-11-17T03:59:06.183Z,22.37
2017-11-17T04:01:35.253Z,24.03
2017-11-17T04:04:03.521Z,25.12
2017-11-17T04:06:31.904Z,23.20
2017-11-17T04:09:00.164Z,25.10
2017-11-17T04:11:28.443Z,24.57
2017-11-17T04:13:56.734Z,25.53
2017-11-17T04:16:24.978Z,25.00
2017-11-17T04:18:53.268Z,25.50
2017-11-17T04:21:21.529Z,22.17
2017-11-17T04:23:50.567Z,23.80
2017-11-17T04:26:18.852Z,24.73
2017-11-17T04:28:47.133Z,25.27
2017-11-17T04:31:15.392Z,26.23
2017-11-17T04:33:43.659Z,23.87
2017-11-17T04:36:11.932Z,26.93
2017-11-17T04:38:40.970Z,26.60
2017-11-17T04:41:09.231Z,25.27
2017-11-17T04:43:37.517Z,24.95
2017-11-17T04:46:05.777Z,25.50
2017-11-17T04:48:34.052Z,24.43
2017-11-17T04:51:03.071Z,23.53
2017-11-17T04:53:31.389Z,23.67
2017-11-17T04:55:59.694Z,25.03
2017-11-17T04:58:28.047Z,24.70
2017-11-17T05:00:56.295Z,23.60
2017-11-17T05:03:24.606Z,23.37
2017-11-17T05:05:52.857Z,27.10
2017-11-17T05:08:21.997Z,27.60
2017-11-17T05:10:50.256Z,25.40
2017-11-17T05:13:18.526Z,25.17
2017-11-17T05:15:46.783Z,28.00
2017-11-17T05:18:15.866Z,25.10
2017-11-17T05:20:44.168Z,24.83
2017-11-17T05:23:13.205Z,23.70
2017-11-17T05:25:41.455Z,24.07
2017-11-17T05:28:09.782Z,25.00
2017-11-17T05:30:38.194Z,25.23
2017-11-17T05:33:06.535Z,25.00
2017-11-17T05:35:34.904Z,24.70
2017-11-17T05:38:03.211Z,25.50
2017-11-17T05:40:31.476Z,26.70
2017-11-17T05:42:59.730Z,26.30
2017-11-17T05:45:28.777Z,28.40
2017-11-17T05:47:57.042Z,24.60
2017-11-17T05:50:25.325Z,25.67
2017-11-17T05:52:53.570Z,26.83
2017-11-17T05:55:21.894Z,26.37
2017-11-17T05:57:50.141Z,24.60
2017-11-17T06:00:18.428Z,26.77
2017-11-17T06:02:46.745Z,27.03
2017-11-17T06:05:15.016Z,23.97
2017-11-17T06:07:43.293Z,25.20
2017-11-17T06:10:11.677Z,26.07
2017-11-17T06:12:39.957Z,26.27
2017-11-17T06:15:08.233Z,26.17
2017-11-17T06:17:36.492Z,24.80
2017-11-17T06:20:04.781Z,26.20
2017-11-17T06:22:33.040Z,24.90
2017-11-17T06:25:02.067Z,25.20
2017-11-17T06:27:30.319Z,25.73
2017-11-17T06:29:59.352Z,26.50
2017-11-17T06:32:27.613Z,23.97
2017-11-17T06:34:55.947Z,24.37
2017-11-17T06:37:26.676Z,25.23
2017-11-17T06:39:54.953Z,26.30
2017-11-17T06:42:23.331Z,28.37
2017-11-17T06:44:51.588Z,29.02
2017-11-17T06:47:19.880Z,26.58
2017-11-17T06:49:48.170Z,29.40
2017-11-17T06:52:16.439Z,29.10
2017-11-17T06:54:44.692Z,28.50
2017-11-17T06:57:13.010Z,28.67
2017-11-17T06:59:41.379Z,27.23
2017-11-17T07:02:09.668Z,29.13
2017-11-17T07:04:37.938Z,28.33
2017-11-17T07:07:06.225Z,28.20
2017-11-17T07:09:34.510Z,24.23
2017-11-17T07:12:02.784Z,26.03
2017-11-17T07:14:31.033Z,23.73
2017-11-17T07:16:59.309Z,25.83
2017-11-17T07:19:28.361Z,23.90
2017-11-17T07:21:56.727Z,25.20
2017-11-17T07:24:24.985Z,23.27
2017-11-17T07:26:53.264Z,28.87
2017-11-17T07:29:21.529Z,26.03
2017-11-17T07:31:50.573Z,25.57
2017-11-17T07:34:18.944Z,24.63
2017-11-17T07:36:47.207Z,29.50
2017-11-17T07:39:15.529Z,23.67
2017-11-17T07:41:43.900Z,24.80
2017-11-17T07:44:12.149Z,25.57
2017-11-17T07:46:40.437Z,23.90
2017-11-17T07:49:08.693Z,25.00
2017-11-17T07:51:37.733Z,25.60
2017-11-17T07:54:06.050Z,25.97
2017-11-17T07:56:34.300Z,25.47
2017-11-17T07:59:02.714Z,28.33
2017-11-17T08:01:31.886Z,26.80
2017-11-17T08:04:00.194Z,27.00
2017-11-17T08:06:28.426Z,29.73
2017-11-17T08:08:56.699Z,25.97
2017-11-17T08:11:25.013Z,26.40
2017-11-17T08:13:53.291Z,27.67
2017-11-17T08:16:21.569Z,27.90
2017-11-17T08:18:49.863Z,25.53
2017-11-17T08:21:18.110Z,23.67
2017-11-17T08:23:46.382Z,26.00
2017-11-17T08:26:14.645Z,24.33
2017-11-17T08:28:43.702Z,23.90
2017-11-17T08:31:12.010Z,25.93
2017-11-17T08:33:40.280Z,22.50
2017-11-17T08:36:08.560Z,24.83
2017-11-17T08:38:36.852Z,23.13
2017-11-17T08:41:05.109Z,21.90
2017-11-17T08:43:33.381Z,23.80
2017-11-17T08:46:01.643Z,23.10
2017-11-17T08:48:30.692Z,22.43
2017-11-17T08:50:58.945Z,24.43
2017-11-17T08:53:27.261Z,25.40
2017-11-17T08:55:55.532Z,26.57
2017-11-17T08:58:23.816Z,27.57
2017-11-17T09:00:52.093Z,24.57
2017-11-17T09:03:20.353Z,26.60
2017-11-17T09:05:48.674Z,26.67
2017-11-17T09:08:16.940Z,26.53
2017-11-17T09:10:45.200Z,24.20
2017-11-17T09:13:13.500Z,27.27
2017-11-17T09:15:41.768Z,28.43
2017-11-17T09:18:10.020Z,28.93
2017-11-17T09:20:39.174Z,26.20
2017-11-17T09:23:07.448Z,26.87
2017-11-17T09:25:35.745Z,28.17
2017-11-17T09:28:04.005Z,26.57
2017-11-17T09:30:32.269Z,31.43
2017-11-17T09:33:00.580Z,27.37
2017-11-17T09:35:28.881Z,25.93
2017-11-17T09:37:57.177Z,27.53
2017-11-17T09:40:25.656Z,31.67
2017-11-17T09:42:53.887Z,27.40
2017-11-17T09:45:22.185Z,25.87
2017-11-17T09:47:50.469Z,27.20
2017-11-17T09:50:18.743Z,27.93
2017-11-17T09:52:46.984Z,25.63
2017-11-17T09:55:16.135Z,29.03
2017-11-17T09:57:44.416Z,29.50
2017-11-17T10:00:12.708Z,29.60
2017-11-17T10:02:41.007Z,34.20
2017-11-17T10:05:09.244Z,30.10
2017-11-17T10:07:37.638Z,30.10
2017-11-17T10:10:05.977Z,29.23
2017-11-17T10:12:35.010Z,30.37
2017-11-17T10:15:03.261Z,29.33
2017-11-17T10:17:32.301Z,30.43
2017-11-17T10:20:00.582Z,29.20
2017-11-17T10:22:28.857Z,30.57
2017-11-17T10:24:57.140Z,27.53
2017-11-17T10:27:25.434Z,27.83
2017-11-17T10:29:53.696Z,27.13
2017-11-17T10:32:22.922Z,29.97
2017-11-17T10:34:51.182Z,27.97
2017-11-17T10:37:19.489Z,29.20
2017-11-17T10:39:47.744Z,28.23
2017-11-17T10:42:16.051Z,30.20
2017-11-17T10:44:44.293Z,29.73
2017-11-17T10:47:12.600Z,29.87
2017-11-17T10:49:40.876Z,29.63
2017-11-17T10:52:09.217Z,27.70
2017-11-17T10:54:37.540Z,30.90
2017-11-17T10:57:08.656Z,28.10
2017-11-17T10:59:39.517Z,29.10
2017-11-17T11:02:07.783Z,28.40
2017-11-17T11:04:37.207Z,28.20
2017-11-17T11:07:05.515Z,28.57
2017-11-17T11:09:33.831Z,29.53
2017-11-17T11:12:02.076Z,27.80
2017-11-17T11:14:30.499Z,30.37
2017-11-17T11:16:58.837Z,31.33
2017-11-17T11:19:27.109Z,30.43
2017-11-17T11:21:55.369Z,30.70
2017-11-17T11:24:23.673Z,29.67
2017-11-17T11:26:51.928Z,29.70
2017-11-17T11:29:20.200Z,29.30
2017-11-17T11:31:49.218Z,29.03
2017-11-17T11:34:17.497Z,29.17
2017-11-17T11:36:45.748Z,29.67
2017-11-17T11:39:14.022Z,29.87
2017-11-17T11:41:42.269Z,32.73
2017-11-17T11:44:10.544Z,32.17
2017-11-17T11:46:38.934Z,30.47
2017-11-17T11:49:07.238Z,29.40
2017-11-17T11:51:35.491Z,29.57
2017-11-17T11:54:03.768Z,29.70
2017-11-17T11:56:32.023Z,31.10
2017-11-17T11:59:00.286Z,27.97
2017-11-17T12:01:28.603Z,29.53
2017-11-17T12:03:56.880Z,30.67
2017-11-17T12:06:25.163Z,30.50
2017-11-17T12:08:53.414Z,30.70
2017-11-17T12:11:21.746Z,29.10
2017-11-17T12:13:50.113Z,33.27
2017-11-17T12:16:18.388Z,31.63
2017-11-17T12:18:46.671Z,31.20
2017-11-17T12:21:14.958Z,31.97
2017-11-17T12:23:43.213Z,32.30
2017-11-17T12:26:11.497Z,29.53
2017-11-17T12:28:39.735Z,33.13
2017-11-17T12:31:08.008Z,31.97
2017-11-17T12:33:36.261Z,33.40
2017-11-17T12:36:04.537Z,30.20
2017-11-17T12:38:32.823Z,30.83
2017-11-17T12:41:01.097Z,31.03
2017-11-17T12:43:29.345Z,31.83
2017-11-17T12:45:57.658Z,32.70
2017-11-17T12:48:25.915Z,28.77
2017-11-17T12:50:54.172Z,33.10
2017-11-17T12:53:23.192Z,32.60
2017-11-17T12:55:51.495Z,31.43
2017-11-17T12:58:20.516Z,31.13
2017-11-17T13:00:48.884Z,31.07
2017-11-17T13:03:17.141Z,29.17
2017-11-17T13:05:45.405Z,30.93
2017-11-17T13:08:14.426Z,31.60
2017-11-17T13:10:42.702Z,29.87
2017-11-17T13:13:10.949Z,30.37
2017-11-17T13:15:39.217Z,32.77
2017-11-17T13:18:07.593Z,30.57
2017-11-17T13:20:35.960Z,31.47
2017-11-17T13:23:04.219Z,33.50
2017-11-17T13:25:32.496Z,33.00
2017-11-17T13:28:00.756Z,32.77
2017-11-17T13:30:29.810Z,31.33
2017-11-17T13:32:58.177Z,32.33
2017-11-17T13:35:26.428Z,33.10
2017-11-17T13:37:54.697Z,32.57
2017-11-17T13:40:23.718Z,35.20
2017-11-17T13:42:52.001Z,32.87
2017-11-17T13:45:20.243Z,34.40
2017-11-17T13:47:48.513Z,34.17
2017-11-17T13:50:16.769Z,33.37
2017-11-17T13:52:45.051Z,33.63
2017-11-17T13:55:13.301Z,33.33
2017-11-17T13:57:41.595Z,31.60
2017-11-17T14:00:09.844Z,32.40
2017-11-17T14:02:38.889Z,34.50
2017-11-17T14:05:07.150Z,32.47
2017-11-17T14:07:35.521Z,35.20
2017-11-17T14:10:03.946Z,36.20
2017-11-17T14:12:32.228Z,33.53
2017-11-17T14:15:00.488Z,33.43
2017-11-17T14:17:28.784Z,33.80
2017-11-17T14:19:57.035Z,34.00
2017-11-17T14:22:25.305Z,35.07
2017-11-17T14:24:54.330Z,35.70
2017-11-17T14:27:22.601Z,32.40
2017-11-17T14:29:50.925Z,32.97
2017-11-17T14:32:19.188Z,32.00
2017-11-17T14:34:47.474Z,34.97
2017-11-17T14:37:15.747Z,34.67
2017-11-17T14:39:43.999Z,35.27
2017-11-17T14:42:12.287Z,31.47
2017-11-17T14:44:40.539Z,29.53
2017-11-17T14:47:09.601Z,32.80
2017-11-17T14:49:37.877Z,32.67
2017-11-17T14:52:06.148Z,34.33
2017-11-17T14:54:34.434Z,35.60
2017-11-17T14:57:02.685Z,33.30
2017-11-17T14:59:30.960Z,35.37
2017-11-17T15:01:59.989Z,36.33
2017-11-17T15:04:28.261Z,36.13
2017-11-17T15:06:56.512Z,35.07
2017-11-17T15:09:25.551Z,35.93
2017-11-17T15:11:53.829Z,36.70
2017-11-17T15:14:22.087Z,34.90
2017-11-17T15:16:50.347Z,37.03
2017-11-17T15:19:19.384Z,36.13
2017-11-17T15:21:47.651Z,37.90
2017-11-17T15:24:15.929Z,36.47
2017-11-17T15:26:44.280Z,33.03
2017-11-17T15:29:12.572Z,33.67
2017-11-17T15:31:41.594Z,33.50
2017-11-17T15:34:09.869Z,30.77
2017-11-17T15:36:38.881Z,34.87
2017-11-17T15:39:07.176Z,32.90
2017-11-17T15:41:35.439Z,32.60
2017-11-17T15:44:03.756Z,32.17
2017-11-17T15:46:32.030Z,34.17
2017-11-17T15:49:00.313Z,30.87
2017-11-17T15:51:28.566Z,33.80
2017-11-17T15:53:56.885Z,34.23
2017-11-17T15:56:25.156Z,32.23
2017-11-17T15:58:53.415Z,35.30
2017-11-17T16:01:21.682Z,34.30
2017-11-17T16:03:50.717Z,33.00
2017-11-17T16:06:18.996Z,33.50
2017-11-17T16:08:47.236Z,33.73
2017-11-17T16:11:16.289Z,36.40
2017-11-17T16:13:44.866Z,36.27
2017-11-17T16:16:13.128Z,32.87
2017-11-17T16:18:41.599Z,38.47
2017-11-17T16:21:09.924Z,38.30
2017-11-17T16:23:38.168Z,36.27
2017-11-17T16:26:06.441Z,35.60
2017-11-17T16:28:35.473Z,34.83
2017-11-17T16:31:03.759Z,36.60
2017-11-17T16:33:32.018Z,36.80
2017-11-17T16:36:00.280Z,35.70
2017-11-17T16:38:29.321Z,35.80
2017-11-17T16:40:57.602Z,35.30
2017-11-17T16:43:25.859Z,34.53
2017-11-17T16:45:55.096Z,36.20
2017-11-17T16:48:24.379Z,33.77
2017-11-17T16:50:52.652Z,35.80
2017-11-17T16:53:20.910Z,36.97
2017-11-17T16:55:49.173Z,35.50
2017-11-17T16:58:17.421Z,36.90
2017-11-17T17:00:45.701Z,35.27
2017-11-17T17:03:13.975Z,36.60
2017-11-17T17:05:42.237Z,33.20
2017-11-17T17:08:10.559Z,36.03
2017-11-17T17:10:38.814Z,34.83
2017-11-17T17:13:07.089Z,35.50
2017-11-17T17:15:35.354Z,35.30
2017-11-17T17:18:03.636Z,35.63
2017-11-17T17:20:31.933Z,38.30
2017-11-17T17:23:00.201Z,36.93
2017-11-17T17:25:28.453Z,36.40
2017-11-17T17:27:57.489Z,38.60
2017-11-17T17:30:25.754Z,38.10
2017-11-17T17:32:54.031Z,37.40
2017-11-17T17:35:22.293Z,36.70
2017-11-17T17:37:51.332Z,37.60
2017-11-17T17:40:19.589Z,38.33
2017-11-17T17:42:47.865Z,39.63
2017-11-17T17:45:16.271Z,41.27
2017-11-17T17:47:44.544Z,39.27
2017-11-17T17:50:12.807Z,40.03
2017-11-17T17:52:41.131Z,37.37
2017-11-17T17:55:09.457Z,38.87
2017-11-17T17:57:38.498Z,39.70
2017-11-17T18:00:06.768Z,50.05
2017-11-17T18:02:35.031Z,43.27
2017-11-17T18:05:03.289Z,41.07
2017-11-17T18:07:31.581Z,39.97
2017-11-17T18:10:00.602Z,37.70
2017-11-17T18:12:28.865Z,39.90
2017-11-17T18:14:57.909Z,39.40
2017-11-17T18:17:26.159Z,40.93
2017-11-17T18:19:54.423Z,39.10
2017-11-17T18:22:23.454Z,38.83
2017-11-17T18:24:51.902Z,38.90
2017-11-17T18:27:20.535Z,41.20
2017-11-17T18:29:48.818Z,38.77
2017-11-17T18:32:17.091Z,38.70
2017-11-17T18:34:46.150Z,42.07
2017-11-17T18:37:14.397Z,52.90
2017-11-17T18:39:42.698Z,102.13
2017-11-17T18:42:10.969Z,145.10
2017-11-17T18:44:39.275Z,568.40
2017-11-17T18:47:07.566Z,410.17
2017-11-17T18:49:36.298Z,107.67
2017-11-17T18:52:04.632Z,46.73
2017-11-17T18:54:33.670Z,41.10
2017-11-17T18:57:01.939Z,39.00
2017-11-17T18:59:31.005Z,39.60
2017-11-17T19:01:59.253Z,40.60
2017-11-17T19:04:28.240Z,38.30
2017-11-17T19:06:56.548Z,38.80
2017-11-17T19:09:24.813Z,40.57
2017-11-17T19:11:53.108Z,40.47
2017-11-17T19:14:21.424Z,64.67
2017-11-17T19:16:50.538Z,41.87
2017-11-17T19:19:19.564Z,41.07
2017-11-17T19:21:47.849Z,39.40
2017-11-17T19:24:16.125Z,41.33
2017-11-17T19:26:44.398Z,40.00
2017-11-17T19:29:12.698Z,38.87
2017-11-17T19:31:40.957Z,38.10
2017-11-17T19:34:09.269Z,37.17
2017-11-17T19:36:37.551Z,38.33
2017-11-17T19:39:05.812Z,44.07
2017-11-17T19:41:34.089Z,41.50
2017-11-17T19:44:02.337Z,40.40
2017-11-17T19:46:31.477Z,38.63
2017-11-17T19:48:59.728Z,39.10
2017-11-17T19:51:28.913Z,41.20
2017-11-17T19:53:57.303Z,40.97
2017-11-17T19:56:26.333Z,39.23
2017-11-17T19:58:54.591Z,39.70
2017-11-17T20:01:23.738Z,37.80
2017-11-17T20:03:51.992Z,40.07
2017-11-17T20:06:20.274Z,42.57
2017-11-17T20:08:48.549Z,37.17
2017-11-17T20:11:16.823Z,35.50
2017-11-17T20:13:45.156Z,39.23
2017-11-17T20:16:13.429Z,32.17
2017-11-17T20:18:41.701Z,33.77
2017-11-17T20:21:09.973Z,31.00
2017-11-17T20:23:38.238Z,32.63
2017-11-17T20:26:06.723Z,32.43
2017-11-17T20:28:34.979Z,33.97
2017-11-17T20:31:04.018Z,32.33
2017-11-17T20:33:32.277Z,31.20
2017-11-17T20:36:00.525Z,33.07
2017-11-17T20:38:28.863Z,30.87
2017-11-17T20:40:57.121Z,28.93
2017-11-17T20:43:25.383Z,28.23
2017-11-17T20:45:54.400Z,26.40
2017-11-17T20:48:22.673Z,27.83
2017-11-17T20:50:50.924Z,26.27
2017-11-17T20:53:19.599Z,23.90
2017-11-17T20:55:48.697Z,26.63
2017-11-17T20:58:16.972Z,27.67
2017-11-17T21:00:45.246Z,27.67
2017-11-17T21:03:13.529Z,30.70
2017-11-17T21:05:41.777Z,27.37
2017-11-17T21:08:10.106Z,25.30
2017-11-17T21:10:38.356Z,26.13
2017-11-17T21:13:06.634Z,29.37
2017-11-17T21:15:34.893Z,27.87
2017-11-17T21:18:03.919Z,27.40
2017-11-17T21:20:32.186Z,27.40
2017-11-17T21:23:00.453Z,23.00
2017-11-17T21:25:28.719Z,22.63
2017-11-17T21:27:57.744Z,25.77
2017-11-17T21:30:25.999Z,23.20
2017-11-17T21:32:55.048Z,22.43
2017-11-17T21:35:23.334Z,20.50
2017-11-17T21:37:51.607Z,22.13
2017-11-17T21:40:19.876Z,20.43
2017-11-17T21:42:48.501Z,22.53
2017-11-17T21:45:16.873Z,20.53
2017-11-17T21:47:45.128Z,23.17
2017-11-17T21:50:13.406Z,22.03
2017-11-17T21:52:41.649Z,23.50
2017-11-17T21:55:09.926Z,25.77
2017-11-17T21:57:38.193Z,22.97
2017-11-17T22:00:06.493Z,18.90
2017-11-17T22:02:35.519Z,17.73
2017-11-17T22:05:03.820Z,15.93
2017-11-17T22:07:32.082Z,16.47
2017-11-17T22:10:01.124Z,16.70
2017-11-17T22:12:29.380Z,17.13
2017-11-17T22:14:57.658Z,18.30
2017-11-17T22:17:25.947Z,20.10
2017-11-17T22:19:54.216Z,19.83
2017-11-17T22:22:22.486Z,20.07
2017-11-17T22:24:50.755Z,19.70
2017-11-17T22:27:19.800Z,21.00
2017-11-17T22:29:48.073Z,20.07
2017-11-17T22:32:16.325Z,21.20
2017-11-17T22:34:45.385Z,20.30
2017-11-17T22:37:13.628Z,22.70
2017-11-17T22:39:41.885Z,23.40
2017-11-17T22:42:10.211Z,20.23
2017-11-17T22:44:38.504Z,20.17
2017-11-17T22:47:06.765Z,20.07
2017-11-17T22:49:35.152Z,18.77
2017-11-17T22:52:03.433Z,18.53
2017-11-17T22:54:31.704Z,20.40
2017-11-17T22:56:59.992Z,19.23
2017-11-17T22:59:28.254Z,18.97
2017-11-17T23:01:56.520Z,20.60
2017-11-17T23:04:24.778Z,21.20
2017-11-17T23:06:53.048Z,19.47
2017-11-17T23:09:21.406Z,19.97
2017-11-17T23:11:49.676Z,19.97
2017-11-17T23:14:17.936Z,19.37
2017-11-17T23:16:46.204Z,19.83
2017-11-17T23:19:15.249Z,17.50
2017-11-17T23:21:44.459Z,20.40
2017-11-17T23:24:12.717Z,20.93
2017-11-17T23:26:41.009Z,19.27
2017-11-17T23:29:09.264Z,19.13
2017-11-17T23:31:37.584Z,18.87
2017-11-17T23:34:05.832Z,21.70
2017-11-17T23:36:34.135Z,16.63
2017-11-17T23:39:02.384Z,19.23
2017-11-17T23:41:30.665Z,17.97
2017-11-17T23:43:58.921Z,19.10
2017-11-17T23:46:27.195Z,18.40
2017-11-17T23:48:55.455Z,16.20
2017-11-17T23:51:23.829Z,20.30
2017-11-17T23:53:52.087Z,17.37
2017-11-17T23:56:20.360Z,19.87
2017-11-17T23:58:48.641Z,15.33
